Time;durP1;ratioP1;P1;durP2;ratioP2;P2;SDS_P1;SDS_P2;PMS_P1;PMS_P2;Temp;Humidity;BMP_temperature;BMP_pressure;BME280_temperature;BME280_humidity;BME280_pressure;Samples;Min_cycle;Max_cycle;Signal;HPM_P1;HPM_P2
2023/01/30 04:00:37;;;;;;;27.23;4.80;;;6.90;99.90;;;;;;6189060;22;20410;-80
2023/01/30 04:03:02;;;;;;;22.90;5.93;;;6.90;99.90;;;;;;6275773;22;20012;-80
2023/01/30 04:05:28;;;;;;;20.27;4.47;;;7.00;99.90;;;;;;6276011;22;20095;-81
2023/01/30 04:07:58;;;;;;;22.38;4.85;;;6.90;99.90;;;;;;6276746;22;20073;-80
2023/01/30 04:10:25;;;;;;;28.02;5.88;;;7.00;99.90;;;;;;6250583;22;20015;-79
2023/01/30 04:12:50;;;;;;;28.55;5.60;;;6.90;99.90;;;;;;6276557;22;20091;-79
2023/01/30 04:15:16;;;;;;;25.80;6.25;;;6.90;99.90;;;;;;6276472;22;20055;-80
2023/01/30 04:17:46;;;;;;;15.52;4.57;;;6.80;99.90;;;;;;6276589;22;20486;-80
2023/01/30 04:20:12;;;;;;;20.50;4.30;;;6.90;99.90;;;;;;6278050;22;20008;-79
2023/01/30 04:22:38;;;;;;;20.65;4.78;;;6.90;99.90;;;;;;6276611;22;20328;-81
2023/01/30 04:25:03;;;;;;;23.05;4.40;;;6.90;99.90;;;;;;6276950;22;20012;-80
2023/01/30 04:27:29;;;;;;;18.88;4.28;;;6.90;99.90;;;;;;6277816;22;20042;-78
2023/01/30 04:29:55;;;;;;;16.45;3.60;;;6.90;99.90;;;;;;6275793;22;20376;-79
2023/01/30 04:32:20;;;;;;;23.95;3.63;;;6.90;99.90;;;;;;6275592;22;20457;-81
2023/01/30 04:34:46;;;;;;;23.40;3.80;;;6.90;99.90;;;;;;6276019;22;20012;-80
2023/01/30 04:37:11;;;;;;;16.60;4.07;;;6.90;99.90;;;;;;6275747;22;20014;-79
2023/01/30 04:39:37;;;;;;;21.73;4.43;;;6.80;99.90;;;;;;6275838;22;20011;-79
2023/01/30 04:42:03;;;;;;;18.00;4.40;;;6.80;99.90;;;;;;6275480;22;20020;-78
2023/01/30 04:44:29;;;;;;;15.65;3.75;;;6.80;99.90;;;;;;6275788;22;20019;-81
2023/01/30 04:46:54;;;;;;;18.02;3.50;;;6.80;99.90;;;;;;6275833;22;20142;-79
2023/01/30 04:49:20;;;;;;;29.90;4.40;;;6.80;99.90;;;;;;6277374;22;20078;-81
2023/01/30 04:51:46;;;;;;;27.65;5.47;;;6.70;99.90;;;;;;6275590;22;20012;-77
2023/01/30 04:54:11;;;;;;;21.98;4.07;;;6.70;99.90;;;;;;6277197;22;20077;-79
2023/01/30 04:56:37;;;;;;;25.35;4.47;;;6.60;99.90;;;;;;6250032;22;20090;-78
2023/01/30 04:59:02;;;;;;;19.05;3.97;;;6.50;99.90;;;;;;6275291;22;20015;-78
2023/01/30 05:01:34;;;;;;;21.95;4.45;;;6.50;99.90;;;;;;6277120;22;20016;-78
2023/01/30 05:04:00;;;;;;;23.20;4.38;;;6.40;99.90;;;;;;6275394;22;20437;-78
2023/01/30 05:06:26;;;;;;;21.23;4.07;;;6.30;99.90;;;;;;6277208;22;20306;-79
2023/01/30 05:08:54;;;;;;;23.10;4.57;;;6.30;99.90;;;;;;6275385;22;20137;-78
2023/01/30 05:11:22;;;;;;;27.55;4.63;;;6.20;99.90;;;;;;6275618;22;20031;-78
2023/01/30 05:13:49;;;;;;;21.98;3.35;;;6.10;99.90;;;;;;6249598;22;20468;-80
2023/01/30 05:16:17;;;;;;;19.30;3.25;;;6.10;99.90;;;;;;6275193;22;20019;-77
2023/01/30 05:18:42;;;;;;;24.35;4.28;;;6.10;99.90;;;;;;6275584;22;20020;-81
2023/01/30 05:21:11;;;;;;;21.35;3.65;;;6.00;99.90;;;;;;6275263;22;20122;-78
2023/01/30 05:23:37;;;;;;;20.83;4.47;;;6.00;99.90;;;;;;6276938;22;20551;-78
2023/01/30 05:26:03;;;;;;;20.35;4.30;;;6.00;99.90;;;;;;6275245;22;20055;-80
2023/01/30 05:28:29;;;;;;;23.88;3.25;;;6.00;99.90;;;;;;6275478;22;20445;-74
2023/01/30 05:31:02;;;;;;;24.98;3.33;;;6.00;99.90;;;;;;6249026;22;20055;-80
2023/01/30 05:33:28;;;;;;;24.77;4.43;;;6.00;99.90;;;;;;6277383;22;20012;-75
2023/01/30 05:35:53;;;;;;;24.02;3.40;;;6.00;99.90;;;;;;6275255;22;20039;-78
2023/01/30 05:38:20;;;;;;;22.70;4.07;;;6.00;99.90;;;;;;6275148;22;20082;-78
2023/01/30 05:40:46;;;;;;;18.88;3.75;;;6.00;99.90;;;;;;6275501;22;20043;-79
2023/01/30 05:43:12;;;;;;;21.83;4.10;;;6.00;99.90;;;;;;6276814;22;20065;-76
2023/01/30 05:45:37;;;;;;;22.52;3.20;;;5.90;99.90;;;;;;6274827;22;20424;-77
2023/01/30 05:48:03;;;;;;;23.65;4.07;;;5.90;99.90;;;;;;6274769;22;20022;-77
2023/01/30 05:50:30;;;;;;;29.38;4.97;;;5.80;99.90;;;;;;6276663;22;20043;-77
2023/01/30 05:52:55;;;;;;;23.15;4.43;;;5.90;99.90;;;;;;6274855;22;20340;-78
2023/01/30 05:55:21;;;;;;;13.93;3.42;;;5.90;99.90;;;;;;6277216;22;20015;-76
2023/01/30 05:57:46;;;;;;;22.90;3.25;;;5.90;99.90;;;;;;6276280;22;20018;-76
2023/01/30 06:00:13;;;;;;;19.52;3.22;;;5.80;99.90;;;;;;6275442;22;20372;-78
2023/01/30 06:02:38;;;;;;;28.17;4.43;;;5.90;99.90;;;;;;6274749;22;20012;-76
2023/01/30 06:05:04;;;;;;;30.35;6.22;;;5.80;99.90;;;;;;6249181;22;20381;-76
2023/01/30 06:07:31;;;;;;;33.45;4.35;;;5.80;99.90;;;;;;6274758;22;20018;-78
2023/01/30 06:09:56;;;;;;;21.02;3.00;;;5.80;99.90;;;;;;6275155;22;20012;-76
2023/01/30 06:12:22;;;;;;;25.08;4.53;;;5.80;99.90;;;;;;6276506;22;20007;-78
2023/01/30 06:14:47;;;;;;;22.33;4.25;;;5.80;99.90;;;;;;6274488;22;20011;-78
2023/01/30 06:17:13;;;;;;;15.77;3.00;;;5.80;99.90;;;;;;6274682;22;20016;-75
2023/01/30 06:19:39;;;;;;;23.85;3.83;;;5.90;99.90;;;;;;6249237;22;20082;-78
2023/01/30 06:22:04;;;;;;;25.10;3.78;;;5.90;99.90;;;;;;6276049;22;20016;-78
2023/01/30 06:24:30;;;;;;;28.00;3.85;;;5.90;99.90;;;;;;6249173;22;20023;-77
2023/01/30 06:26:57;;;;;;;27.25;3.55;;;6.00;99.90;;;;;;6274553;22;20012;-74
2023/01/30 06:29:22;;;;;;;29.65;4.63;;;6.00;99.90;;;;;;6274625;22;20031;-77
2023/01/30 06:31:48;;;;;;;22.42;3.92;;;6.00;99.90;;;;;;6274555;22;20008;-78
2023/01/30 06:34:14;;;;;;;28.95;4.53;;;6.00;99.90;;;;;;6277647;22;20007;-78
2023/01/30 06:36:39;;;;;;;21.52;3.45;;;6.00;99.90;;;;;;6274927;22;20022;-81
2023/01/30 06:39:05;;;;;;;24.10;3.38;;;5.90;99.90;;;;;;6275431;22;20446;-77
2023/01/30 06:41:30;;;;;;;25.85;3.70;;;5.90;99.90;;;;;;6275878;22;20061;-79
2023/01/30 06:43:56;;;;;;;24.42;4.47;;;5.90;99.90;;;;;;6277857;22;20018;-81
2023/01/30 06:46:22;;;;;;;29.73;4.88;;;5.90;99.90;;;;;;6280034;22;20429;-80
2023/01/30 06:48:47;;;;;;;22.88;3.78;;;5.90;99.90;;;;;;6252106;22;20015;-80
2023/01/30 06:51:13;;;;;;;26.13;4.43;;;5.90;99.90;;;;;;6279490;22;20030;-77
2023/01/30 06:53:38;;;;;;;36.65;4.57;;;5.90;99.90;;;;;;6277696;22;20109;-80
2023/01/30 06:56:04;;;;;;;25.40;3.42;;;5.90;99.90;;;;;;6277608;22;20023;-78
2023/01/30 06:58:30;;;;;;;25.25;4.07;;;5.90;99.90;;;;;;6252142;22;20012;-82
2023/01/30 07:00:56;;;;;;;21.20;4.00;;;5.90;99.90;;;;;;6277259;22;20022;-83
2023/01/30 07:03:21;;;;;;;20.33;3.60;;;5.80;99.90;;;;;;6278417;22;20020;-81
2023/01/30 07:05:47;;;;;;;21.30;3.40;;;5.80;99.90;;;;;;6251588;22;20194;-78
2023/01/30 07:08:14;;;;;;;24.45;4.05;;;5.90;99.90;;;;;;6278792;22;20015;-82
2023/01/30 07:10:41;;;;;;;19.38;3.80;;;5.90;99.90;;;;;;6277185;22;20011;-80
2023/01/30 07:13:07;;;;;;;23.67;3.38;;;5.90;99.90;;;;;;6277346;22;20012;-80
2023/01/30 07:15:32;;;;;;;33.38;4.05;;;5.90;99.90;;;;;;6277758;22;20329;-81
2023/01/30 07:17:59;;;;;;;29.48;4.40;;;5.90;99.90;;;;;;6277259;22;20437;-80
2023/01/30 07:20:25;;;;;;;14.73;3.33;;;5.90;99.90;;;;;;6277224;22;20023;-82
2023/01/30 07:22:52;;;;;;;29.77;4.68;;;5.90;99.90;;;;;;6279816;22;20295;-84
2023/01/30 07:25:20;;;;;;;25.85;3.92;;;6.00;99.90;;;;;;6252076;22;20320;-81
2023/01/30 07:27:53;;;;;;;18.35;3.05;;;6.10;99.90;;;;;;6279552;22;20007;-80
2023/01/30 07:30:19;;;;;;;22.08;3.70;;;6.10;99.90;;;;;;6278494;22;20504;-82
2023/01/30 07:32:49;;;;;;;25.67;3.95;;;6.10;99.90;;;;;;6278748;22;20012;-82
2023/01/30 07:35:15;;;;;;;24.88;3.90;;;6.20;99.90;;;;;;6251501;22;20061;-79
2023/01/30 07:37:44;;;;;;;32.40;5.18;;;6.30;99.90;;;;;;6279407;22;20008;-82
2023/01/30 07:40:11;;;;;;;27.00;3.88;;;6.30;99.90;;;;;;6279071;22;20054;-83
2023/01/30 07:42:36;;;;;;;20.13;3.83;;;6.30;99.90;;;;;;6278931;22;20019;-83
2023/01/30 07:45:02;;;;;;;25.52;3.92;;;6.30;99.90;;;;;;6279380;22;20008;-81
2023/01/30 07:47:27;;;;;;;22.95;4.30;;;6.30;99.90;;;;;;6277020;22;20019;-81
2023/01/30 07:49:53;;;;;;;18.92;3.35;;;6.30;99.90;;;;;;6277489;22;20007;-80
2023/01/30 07:52:19;;;;;;;34.58;5.13;;;6.40;99.90;;;;;;6279119;22;20008;-79
2023/01/30 07:54:44;;;;;;;28.85;4.22;;;6.30;99.90;;;;;;6276909;22;20510;-78
2023/01/30 07:57:13;;;;;;;20.27;3.33;;;6.30;99.90;;;;;;6278734;22;20012;-80
2023/01/30 07:59:38;;;;;;;17.02;3.60;;;6.30;99.90;;;;;;6276968;22;20016;-81
2023/01/30 08:02:05;;;;;;;20.77;3.08;;;6.40;99.90;;;;;;6277103;22;20016;-78
2023/01/30 08:04:31;;;;;;;26.25;3.60;;;6.40;99.90;;;;;;6279168;22;20010;-80
2023/01/30 08:06:56;;;;;;;24.67;3.92;;;6.30;99.90;;;;;;6277329;22;20016;-80
2023/01/30 08:09:22;;;;;;;26.65;4.40;;;6.30;99.90;;;;;;6276880;22;20345;-81
2023/01/30 08:11:47;;;;;;;21.63;3.30;;;6.30;99.90;;;;;;6277062;22;20008;-80
2023/01/30 08:14:13;;;;;;;23.27;4.15;;;6.30;99.90;;;;;;6278910;22;20074;-79
2023/01/30 08:16:42;;;;;;;27.25;3.53;;;6.40;99.90;;;;;;6278163;22;20050;-79
2023/01/30 08:19:08;;;;;;;35.38;4.70;;;6.30;99.90;;;;;;6278306;22;20090;-79
2023/01/30 08:21:33;;;;;;;25.27;3.63;;;6.40;99.90;;;;;;6278313;22;20039;-77
2023/01/30 08:23:59;;;;;;;21.77;4.30;;;6.30;99.90;;;;;;6278669;22;20011;-78
2023/01/30 08:26:25;;;;;;;28.83;4.53;;;6.30;99.90;;;;;;6276300;22;20023;-81
2023/01/30 08:28:51;;;;;;;22.33;4.47;;;6.40;99.90;;;;;;6250948;22;20441;-74
2023/01/30 08:31:17;;;;;;;18.35;3.78;;;6.40;99.90;;;;;;6277641;22;20012;-81
2023/01/30 08:33:43;;;;;;;24.92;3.30;;;6.40;99.90;;;;;;6277895;22;20007;-81
2023/01/30 08:36:09;;;;;;;34.78;4.00;;;6.50;99.90;;;;;;6277165;22;20023;-79
2023/01/30 08:38:35;;;;;;;27.73;5.25;;;6.50;99.90;;;;;;6276677;22;20396;-79
2023/01/30 08:41:03;;;;;;;19.63;3.65;;;6.50;99.90;;;;;;6276941;22;20047;-79
2023/01/30 08:43:29;;;;;;;22.77;3.45;;;6.60;99.90;;;;;;6276819;22;20438;-80
2023/01/30 08:45:55;;;;;;;26.67;4.18;;;6.60;99.90;;;;;;6276879;22;20066;-78
2023/01/30 08:48:22;;;;;;;30.25;4.47;;;6.60;99.90;;;;;;6278745;22;20011;-81
2023/01/30 08:50:55;;;;;;;27.25;3.30;;;6.60;99.90;;;;;;6278656;22;20059;-79
2023/01/30 08:53:21;;;;;;;25.92;3.33;;;6.60;99.90;;;;;;6277628;22;20014;-79
2023/01/30 08:55:52;;;;;;;21.98;4.10;;;6.60;99.90;;;;;;6277164;22;20394;-79
2023/01/30 08:58:19;;;;;;;25.60;4.22;;;6.70;99.90;;;;;;6276558;22;20011;-77
2023/01/30 09:00:45;;;;;;;23.63;4.18;;;6.60;99.90;;;;;;6278088;22;20397;-75
2023/01/30 09:03:12;;;;;;;21.05;3.50;;;6.60;99.90;;;;;;6278111;22;20069;-77
2023/01/30 09:05:38;;;;;;;23.40;4.63;;;6.70;99.90;;;;;;6278388;22;20019;-79
2023/01/30 09:08:03;;;;;;;28.50;5.32;;;6.70;99.90;;;;;;6278428;22;20318;-82
2023/01/30 09:10:29;;;;;;;25.58;4.40;;;6.80;99.90;;;;;;6278514;22;20007;-80
2023/01/30 09:12:56;;;;;;;23.83;4.18;;;6.80;99.90;;;;;;6277573;22;20012;-82
2023/01/30 09:15:22;;;;;;;28.50;3.50;;;6.80;99.90;;;;;;6278131;22;20094;-80
2023/01/30 09:17:47;;;;;;;23.88;5.25;;;6.80;99.90;;;;;;6277979;22;20073;-82
2023/01/30 09:20:13;;;;;;;29.92;5.15;;;6.80;99.90;;;;;;6278865;22;20031;-79
2023/01/30 09:22:39;;;;;;;30.35;4.50;;;6.80;99.90;;;;;;6278534;22;20357;-78
2023/01/30 09:25:06;;;;;;;21.55;3.90;;;6.80;99.90;;;;;;6277685;22;20015;-79
2023/01/30 09:27:31;;;;;;;24.05;3.50;;;6.80;99.90;;;;;;6277060;22;20011;-78
2023/01/30 09:29:57;;;;;;;20.25;3.92;;;6.90;99.90;;;;;;6277116;22;20027;-79
2023/01/30 09:32:23;;;;;;;25.70;4.28;;;7.00;99.90;;;;;;6251064;22;20015;-79
2023/01/30 09:34:49;;;;;;;31.92;4.30;;;7.10;99.90;;;;;;6277298;22;20012;-79
2023/01/30 09:37:14;;;;;;;30.10;4.55;;;7.20;99.90;;;;;;6278455;22;20027;-81
2023/01/30 09:39:40;;;;;;;27.30;4.55;;;7.20;99.90;;;;;;6278439;22;20039;-82
2023/01/30 09:42:27;;;;;;;22.05;4.82;;;7.30;99.90;;;;;;6276662;22;20019;-77
2023/01/30 09:45:08;;;;;;;31.95;5.32;;;7.40;99.90;;;;;;6278707;22;20083;-82
2023/01/30 09:47:35;;;;;;;32.60;5.00;;;7.50;99.90;;;;;;6276584;22;20034;-82
2023/01/30 09:50:22;;;;;;;25.55;5.05;;;7.60;99.90;;;;;;6250826;22;20015;-82
2023/01/30 09:53:25;;;;;;;29.05;4.88;;;7.60;99.90;;;;;;6276785;22;20012;-82
2023/01/30 09:55:51;;;;;;;27.27;4.55;;;7.70;99.90;;;;;;6277356;22;20406;-81
2023/01/30 09:58:21;;;;;;;26.90;4.85;;;7.70;99.90;;;;;;6276670;22;20023;-81
2023/01/30 10:00:50;;;;;;;33.70;4.70;;;7.70;99.90;;;;;;6276131;22;20086;-83
2023/01/30 10:03:22;;;;;;;22.02;3.63;;;7.70;99.90;;;;;;6276384;22;20026;-81
2023/01/30 10:06:01;;;;;;;26.45;4.22;;;7.60;99.90;;;;;;6277518;22;20019;-82
2023/01/30 10:08:56;;;;;;;29.13;5.45;;;7.60;99.90;;;;;;6277032;22;20011;-82
2023/01/30 10:11:46;;;;;;;28.27;3.38;;;7.60;99.90;;;;;;6276642;22;20019;-82
2023/01/30 10:14:26;;;;;;;20.08;4.28;;;7.70;99.90;;;;;;6277050;22;20077;-81
2023/01/30 10:17:23;;;;;;;23.00;3.13;;;7.70;99.90;;;;;;6277544;22;20099;-83
2023/01/30 10:19:52;;;;;;;21.63;4.15;;;7.80;99.90;;;;;;6280402;22;20012;-81
2023/01/30 10:22:29;;;;;;;29.20;4.65;;;7.80;99.90;;;;;;6278576;22;20077;-82
2023/01/30 10:25:33;;;;;;;28.85;4.40;;;7.70;99.90;;;;;;6278740;22;20470;-82
2023/01/30 10:28:14;;;;;;;28.83;4.45;;;7.80;99.90;;;;;;6218142;22;20031;-80
2023/01/30 10:30:41;;;;;;;28.23;4.10;;;7.80;99.90;;;;;;6280343;22;20087;-81
2023/01/30 10:33:21;;;;;;;29.80;4.55;;;7.80;99.90;;;;;;6280604;22;20078;-80
2023/01/30 10:35:57;;;;;;;30.88;4.97;;;7.70;99.90;;;;;;6279213;22;20027;-80
2023/01/30 10:38:52;;;;;;;29.35;5.50;;;7.70;99.90;;;;;;6279513;22;20015;-83
2023/01/30 10:41:36;;;;;;;27.25;5.47;;;7.70;99.90;;;;;;6277213;22;20022;-82
2023/01/30 10:44:10;;;;;;;37.30;7.72;;;7.70;99.90;;;;;;6278824;22;20096;-82
2023/01/30 10:47:10;;;;;;;26.20;4.60;;;7.70;99.90;;;;;;6280361;22;20452;-82
2023/01/30 10:49:59;;;;;;;35.50;5.80;;;7.70;99.90;;;;;;6258933;22;20017;-82
2023/01/30 10:52:36;;;;;;;27.75;5.07;;;7.70;99.90;;;;;;6157362;23;20020;-82
2023/01/30 10:55:26;;;;;;;27.25;4.45;;;7.70;99.90;;;;;;6132669;23;20080;-81
2023/01/30 10:58:03;;;;;;;30.92;4.78;;;7.70;99.90;;;;;;6131498;23;20078;-81
2023/01/30 11:00:38;;;;;;;23.83;4.30;;;7.70;99.90;;;;;;6155115;23;20388;-76
2023/01/30 11:03:24;;;;;;;28.48;3.97;;;7.80;99.90;;;;;;6155773;23;20506;-77
2023/01/30 11:05:53;;;;;;;23.92;4.28;;;7.90;99.90;;;;;;6130346;23;20024;-78
2023/01/30 11:08:30;;;;;;;23.25;4.40;;;7.90;99.90;;;;;;6155079;23;20041;-76
2023/01/30 11:10:57;;;;;;;27.42;4.40;;;7.90;99.90;;;;;;6155256;23;20010;-75
2023/01/30 11:13:31;;;;;;;26.35;4.20;;;7.90;99.90;;;;;;6135016;23;20045;-74
2023/01/30 11:16:02;;;;;;;29.92;5.10;;;7.90;99.90;;;;;;6171007;22;20012;-73
2023/01/30 11:18:28;;;;;;;24.02;3.88;;;7.90;99.90;;;;;;6281751;22;20055;-76
2023/01/30 11:21:06;;;;;;;30.13;5.93;;;7.80;99.90;;;;;;6279399;22;20012;-78
2023/01/30 11:23:43;;;;;;;34.05;5.63;;;7.80;99.90;;;;;;6277495;22;20019;-78
2023/01/30 11:26:35;;;;;;;27.73;4.90;;;7.80;99.90;;;;;;6278868;22;20007;-77
2023/01/30 11:29:16;;;;;;;33.50;5.05;;;7.70;99.90;;;;;;6273353;22;20016;-76
2023/01/30 11:31:47;;;;;;;26.52;4.80;;;7.60;99.90;;;;;;6277283;22;20041;-78
2023/01/30 11:34:18;;;;;;;28.38;4.25;;;7.40;99.90;;;;;;6277049;22;20341;-76
2023/01/30 11:36:47;;;;;;;28.38;4.90;;;7.20;99.90;;;;;;6277760;22;20018;-78
2023/01/30 11:39:14;;;;;;;25.33;3.88;;;7.10;99.90;;;;;;6278820;22;20060;-76
2023/01/30 11:42:03;;;;;;;25.45;4.05;;;7.20;99.90;;;;;;6276866;22;20019;-77
2023/01/30 11:44:39;;;;;;;29.52;4.30;;;7.20;99.90;;;;;;6251892;22;20015;-78
2023/01/30 11:47:13;;;;;;;21.02;3.42;;;7.20;99.90;;;;;;6276950;22;20012;-77
2023/01/30 11:49:45;;;;;;;27.90;4.88;;;7.30;99.90;;;;;;6277430;22;20322;-76
2023/01/30 11:52:12;;;;;;;23.95;4.80;;;7.40;99.90;;;;;;6276583;22;20008;-77
2023/01/30 11:54:43;;;;;;;22.27;3.85;;;7.40;99.90;;;;;;6278823;22;20341;-76
2023/01/30 11:57:13;;;;;;;33.83;6.13;;;7.40;99.90;;;;;;6276877;22;20020;-76
2023/01/30 11:59:57;;;;;;;17.83;3.58;;;7.20;99.90;;;;;;6277555;22;20020;-77
2023/01/30 12:02:32;;;;;;;23.67;3.33;;;6.70;99.90;;;;;;6276381;22;20103;-78
2023/01/30 12:05:22;;;;;;;32.97;4.35;;;6.40;99.90;;;;;;6250770;22;20011;-79
2023/01/30 12:07:50;;;;;;;30.83;4.30;;;6.40;99.90;;;;;;6276340;22;20020;-77
2023/01/30 12:10:29;;;;;;;17.38;2.95;;;6.70;99.90;;;;;;6276326;22;20050;-79
2023/01/30 12:13:01;;;;;;;30.95;4.50;;;6.90;99.90;;;;;;6277963;22;20012;-79
2023/01/30 12:15:29;;;;;;;25.67;4.15;;;7.00;99.90;;;;;;6278471;22;20075;-81
2023/01/30 12:17:55;;;;;;;23.45;3.85;;;7.00;99.90;;;;;;6277862;22;20016;-78
2023/01/30 12:20:48;;;;;;;23.02;3.70;;;7.00;99.90;;;;;;6278205;22;20015;-78
2023/01/30 12:23:27;;;;;;;22.15;3.38;;;6.90;99.90;;;;;;6276165;22;20086;-78
2023/01/30 12:26:24;;;;;;;16.40;3.05;;;6.90;99.90;;;;;;6278137;22;20393;-77
2023/01/30 12:29:13;;;;;;;11.88;1.95;;;6.80;99.90;;;;;;6249425;22;20022;-77
2023/01/30 12:31:46;;;;;;;14.20;2.33;;;6.90;99.90;;;;;;6276272;22;20011;-77
2023/01/30 12:34:12;;;;;;;17.33;2.80;;;7.10;99.90;;;;;;6276051;22;20337;-79
2023/01/30 12:36:58;;;;;;;17.15;2.28;;;7.20;99.90;;;;;;6251018;22;20015;-76
2023/01/30 12:39:32;;;;;;;12.23;2.58;;;7.40;99.90;;;;;;6276001;22;20011;-77
2023/01/30 12:42:33;;;;;;;23.30;2.63;;;7.50;99.90;;;;;;6278976;22;20016;-80
2023/01/30 12:45:13;;;;;;;17.00;3.28;;;7.60;99.90;;;;;;6277053;22;20057;-79
2023/01/30 12:47:53;;;;;;;14.25;2.10;;;7.70;99.90;;;;;;6275651;22;20094;-80
2023/01/30 12:50:25;;;;;;;25.70;4.65;;;7.80;99.90;;;;;;6276004;22;20008;-76
2023/01/30 12:53:20;;;;;;;15.18;2.58;;;7.90;99.90;;;;;;6278185;22;20418;-78
2023/01/30 12:56:13;;;;;;;18.52;3.47;;;8.00;99.90;;;;;;6276365;22;20019;-79
2023/01/30 12:58:50;;;;;;;15.73;2.42;;;8.10;99.90;;;;;;6250553;22;20015;-78
2023/01/30 13:01:26;;;;;;;22.08;3.35;;;8.20;99.90;;;;;;6275633;22;20034;-75
2023/01/30 13:04:07;;;;;;;24.08;3.15;;;8.20;99.90;;;;;;6277987;22;20012;-79
2023/01/30 13:06:45;;;;;;;27.48;4.28;;;8.10;99.90;;;;;;6276166;22;20019;-76
2023/01/30 13:09:32;;;;;;;22.98;3.47;;;8.00;99.90;;;;;;6251309;22;20016;-77
2023/01/30 13:12:06;;;;;;;24.05;4.05;;;7.90;99.90;;;;;;6275971;22;20057;-80
2023/01/30 13:14:50;;;;;;;22.15;3.70;;;7.90;99.90;;;;;;6277465;22;20039;-76
2023/01/30 13:17:44;;;;;;;15.77;2.85;;;8.00;99.90;;;;;;6276121;22;20019;-77
2023/01/30 13:20:34;;;;;;;21.05;3.55;;;8.00;99.90;;;;;;6243741;22;20050;-78
2023/01/30 13:23:07;;;;;;;29.27;4.63;;;8.10;99.90;;;;;;6275513;22;20018;-79
2023/01/30 13:25:36;;;;;;;26.23;4.40;;;8.10;99.90;;;;;;6275300;22;20322;-77
2023/01/30 13:28:24;;;;;;;25.92;4.18;;;8.20;99.90;;;;;;6275316;22;20012;-78
2023/01/30 13:30:52;;;;;;;23.85;4.30;;;8.20;99.90;;;;;;6274863;22;20011;-79
2023/01/30 13:33:29;;;;;;;34.85;4.85;;;8.30;99.90;;;;;;6277009;22;20008;-80
2023/01/30 13:36:16;;;;;;;28.45;4.20;;;8.20;99.90;;;;;;6250058;22;20019;-75
2023/01/30 13:39:12;;;;;;;20.35;4.13;;;8.20;99.90;;;;;;6275310;22;20081;-80
2023/01/30 13:41:44;;;;;;;23.20;4.75;;;8.10;99.90;;;;;;6275370;22;20023;-76
2023/01/30 13:44:31;;;;;;;37.13;5.60;;;8.10;99.90;;;;;;6276152;22;20061;-76
2023/01/30 13:47:22;;;;;;;34.88;4.75;;;8.10;99.90;;;;;;6275120;22;20012;-79
2023/01/30 13:50:22;;;;;;;33.08;4.82;;;8.00;99.90;;;;;;6274379;22;20091;-76
2023/01/30 13:53:07;;;;;;;25.30;3.90;;;8.00;99.90;;;;;;6274942;22;20008;-77
2023/01/30 13:55:37;;;;;;;28.83;6.35;;;8.00;99.90;;;;;;6275276;22;20445;-79
2023/01/30 13:58:29;;;;;;;32.45;6.50;;;8.00;99.90;;;;;;6275019;22;20448;-78
2023/01/30 14:00:56;;;;;;;25.55;4.70;;;8.00;99.90;;;;;;6217842;22;20326;-78
2023/01/30 14:03:25;;;;;;;26.95;4.15;;;8.00;99.90;;;;;;6275196;22;20484;-75
2023/01/30 14:05:53;;;;;;;32.78;5.65;;;8.00;99.90;;;;;;6275281;22;20023;-76
2023/01/30 14:08:25;;;;;;;27.73;4.93;;;8.00;99.90;;;;;;6277144;22;20119;-80
2023/01/30 14:10:51;;;;;;;33.78;4.57;;;7.90;99.90;;;;;;6277143;22;20012;-76
2023/01/30 14:13:17;;;;;;;34.40;5.95;;;8.00;99.90;;;;;;6275680;22;20329;-78
2023/01/30 14:16:02;;;;;;;41.88;5.45;;;8.00;99.90;;;;;;6277396;22;20012;-75
2023/01/30 14:18:41;;;;;;;19.77;4.05;;;8.10;99.90;;;;;;6275180;22;20018;-79
2023/01/30 14:21:21;;;;;;;27.95;4.30;;;8.20;99.90;;;;;;6275639;22;20102;-77
2023/01/30 14:24:04;;;;;;;29.13;4.88;;;8.30;99.90;;;;;;6275147;22;20015;-78
2023/01/30 14:26:49;;;;;;;37.03;4.82;;;8.30;99.90;;;;;;6276578;22;20055;-78
2023/01/30 14:29:36;;;;;;;44.15;6.78;;;8.30;99.90;;;;;;6275173;22;20583;-78
2023/01/30 14:32:22;;;;;;;26.75;4.82;;;8.30;99.90;;;;;;6275735;22;20054;-77
2023/01/30 14:35:00;;;;;;;30.70;4.95;;;8.30;99.90;;;;;;6274697;22;20437;-78
2023/01/30 14:37:33;;;;;;;33.45;5.95;;;8.20;99.90;;;;;;6274873;22;20047;-78
2023/01/30 14:40:00;;;;;;;30.65;4.70;;;8.10;99.90;;;;;;6275116;22;20031;-79
2023/01/30 14:42:29;;;;;;;24.70;5.15;;;8.00;99.90;;;;;;6274797;22;20011;-76
2023/01/30 14:45:04;;;;;;;26.17;4.38;;;7.90;99.90;;;;;;6249701;22;20019;-77
2023/01/30 14:47:31;;;;;;;33.65;5.97;;;7.80;99.90;;;;;;6275294;22;20450;-77
2023/01/30 14:49:59;;;;;;;32.80;6.32;;;7.70;99.90;;;;;;6275229;22;20019;-77
2023/01/30 14:52:40;;;;;;;31.92;5.82;;;7.70;99.90;;;;;;6274848;22;20088;-77
2023/01/30 14:55:17;;;;;;;25.55;4.63;;;7.60;99.90;;;;;;6274789;22;20467;-77
2023/01/30 14:57:59;;;;;;;22.10;4.45;;;7.60;99.90;;;;;;6274706;22;20018;-76
2023/01/30 15:00:32;;;;;;;31.25;5.00;;;7.60;99.90;;;;;;6275315;22;20102;-77
2023/01/30 15:03:04;;;;;;;29.30;4.38;;;7.60;99.90;;;;;;6277683;22;20018;-76
2023/01/30 15:05:33;;;;;;;24.17;4.30;;;7.70;99.90;;;;;;6277020;22;20018;-77
2023/01/30 15:08:13;;;;;;;28.13;5.55;;;7.70;99.90;;;;;;6277043;22;20079;-76
2023/01/30 15:10:51;;;;;;;26.27;4.95;;;7.70;99.90;;;;;;6278399;22;20012;-78
2023/01/30 15:13:16;;;;;;;23.98;5.40;;;7.80;99.90;;;;;;6278835;22;20334;-75
2023/01/30 15:16:00;;;;;;;24.73;4.72;;;7.80;99.90;;;;;;6251680;22;20012;-78
2023/01/30 15:19:03;;;;;;;26.77;4.53;;;7.80;99.90;;;;;;6276922;22;20368;-79
2023/01/30 15:21:39;;;;;;;25.25;4.38;;;7.80;99.90;;;;;;6278341;22;20008;-79
2023/01/30 15:24:22;;;;;;;34.45;5.72;;;7.80;99.90;;;;;;6277090;22;20042;-76
2023/01/30 15:26:51;;;;;;;22.85;3.72;;;7.70;99.90;;;;;;6276270;22;20467;-78
2023/01/30 15:29:38;;;;;;;31.17;4.57;;;7.70;99.90;;;;;;6278529;22;20011;-78
2023/01/30 15:32:17;;;;;;;30.98;5.25;;;7.60;99.90;;;;;;6276849;22;20012;-75
2023/01/30 15:34:54;;;;;;;27.77;4.85;;;7.60;99.90;;;;;;6278882;22;20012;-77
2023/01/30 15:37:34;;;;;;;30.58;4.45;;;7.50;99.90;;;;;;6276794;22;20016;-74
2023/01/30 15:40:19;;;;;;;39.03;5.88;;;7.50;99.90;;;;;;6251128;22;20385;-76
2023/01/30 15:42:47;;;;;;;28.38;4.68;;;7.40;99.90;;;;;;6276539;22;20019;-76
2023/01/30 15:45:19;;;;;;;31.75;4.75;;;7.30;99.90;;;;;;6276468;22;20022;-79
2023/01/30 15:48:07;;;;;;;28.92;5.68;;;7.30;99.90;;;;;;6276191;22;20024;-75
2023/01/30 15:50:33;;;;;;;37.25;5.53;;;7.20;99.90;;;;;;6276256;22;20019;-78
2023/01/30 15:52:59;;;;;;;32.80;5.05;;;7.20;99.90;;;;;;6276245;22;20008;-76
2023/01/30 15:55:28;;;;;;;28.75;5.18;;;7.10;99.90;;;;;;6277800;22;20091;-74
2023/01/30 15:58:09;;;;;;;32.70;5.05;;;7.10;99.90;;;;;;6276353;22;20011;-81
2023/01/30 16:00:39;;;;;;;40.90;4.88;;;7.10;99.90;;;;;;6276555;22;20042;-77
2023/01/30 16:03:10;;;;;;;26.70;4.75;;;7.00;99.90;;;;;;6278217;22;20023;-78
2023/01/30 16:05:44;;;;;;;27.60;4.68;;;7.00;99.90;;;;;;6277299;22;20087;-77
2023/01/30 16:08:35;;;;;;;35.35;5.20;;;7.00;99.90;;;;;;6277642;22;20011;-77
2023/01/30 16:11:01;;;;;;;36.22;5.47;;;7.00;99.90;;;;;;6276265;22;20138;-76
2023/01/30 16:13:28;;;;;;;34.30;5.65;;;6.90;99.90;;;;;;6250823;22;20004;-78
2023/01/30 16:16:15;;;;;;;35.10;5.03;;;6.90;99.90;;;;;;6276480;22;20064;-80
2023/01/30 16:18:48;;;;;;;27.77;4.10;;;6.80;99.90;;;;;;6281724;22;20019;-77
2023/01/30 16:21:27;;;;;;;24.70;3.83;;;6.80;99.90;;;;;;6288980;22;20038;-75
2023/01/30 16:24:05;;;;;;;29.13;4.10;;;6.70;99.90;;;;;;6280962;22;20094;-77
2023/01/30 16:26:33;;;;;;;24.00;3.60;;;6.70;99.90;;;;;;6277489;22;20466;-78
2023/01/30 16:29:18;;;;;;;24.70;4.90;;;6.70;99.90;;;;;;6251134;22;20019;-76
2023/01/30 16:31:46;;;;;;;16.05;4.07;;;6.60;99.90;;;;;;6276185;22;20007;-77
2023/01/30 16:34:38;;;;;;;16.20;3.40;;;6.50;99.90;;;;;;6276383;22;20008;-78
2023/01/30 16:37:07;;;;;;;16.15;2.97;;;6.50;99.90;;;;;;6270138;22;20289;-77
2023/01/30 16:39:35;;;;;;;22.50;3.80;;;6.50;99.90;;;;;;6277711;22;20100;-77
2023/01/30 16:42:03;;;;;;;17.65;2.92;;;6.40;99.90;;;;;;6275970;22;20383;-78
2023/01/30 16:44:30;;;;;;;13.68;2.70;;;6.40;99.90;;;;;;6275730;22;20039;-78
2023/01/30 16:47:05;;;;;;;17.33;3.08;;;6.40;99.90;;;;;;6277952;22;20016;-77
2023/01/30 16:49:42;;;;;;;20.42;2.95;;;6.40;99.90;;;;;;6250462;22;20446;-74
2023/01/30 16:52:17;;;;;;;24.67;3.30;;;6.30;99.90;;;;;;6275875;22;20011;-77
2023/01/30 16:54:56;;;;;;;14.47;2.30;;;6.30;99.90;;;;;;6250160;22;20012;-76
2023/01/30 16:57:34;;;;;;;20.42;3.50;;;6.30;99.90;;;;;;6277814;22;20257;-78
2023/01/30 17:00:06;;;;;;;25.88;3.70;;;6.20;99.90;;;;;;6276962;22;20452;-76
2023/01/30 17:02:34;;;;;;;21.33;4.15;;;6.20;99.90;;;;;;6275850;22;20018;-77
2023/01/30 17:05:21;;;;;;;19.60;3.60;;;6.20;99.90;;;;;;6250188;22;20051;-77
2023/01/30 17:07:48;;;;;;;18.48;2.67;;;6.20;99.90;;;;;;6275536;22;20437;-75
2023/01/30 17:10:36;;;;;;;14.73;3.20;;;6.10;99.90;;;;;;6276932;22;20012;-74
2023/01/30 17:13:02;;;;;;;21.08;3.25;;;6.10;99.90;;;;;;6277137;22;20082;-77
2023/01/30 17:15:30;;;;;;;23.55;4.05;;;6.10;99.90;;;;;;6275126;22;20012;-75